sensor_id;sensor_type;location;lat;lon;timestamp;pressure;altitude;pressure_sealevel;temperature;humidity
8697;BME280;4385;48.848;8.924;2022-11-18T00:01:08;95590.75;;;18.89;100.00
8697;BME280;4385;48.848;8.924;2022-11-18T00:03:34;95594.09;;;18.90;100.00
8697;BME280;4385;48.848;8.924;2022-11-18T00:06:00;95585.56;;;18.91;100.00
8697;BME280;4385;48.848;8.924;2022-11-18T00:08:26;95587.19;;;18.92;100.00
8697;BME280;4385;48.848;8.924;2022-11-18T00:10:51;95584.63;;;18.92;100.00
8697;BME280;4385;48.848;8.924;2022-11-18T00:13:18;95588.03;;;18.92;100.00
8697;BME280;4385;48.848;8.924;2022-11-18T00:16:03;95589.66;;;18.93;100.00
8697;BME280;4385;48.848;8.924;2022-11-18T00:18:29;95589.66;;;18.93;100.00
8697;BME280;4385;48.848;8.924;2022-11-18T00:20:54;95582.09;;;18.92;100.00
8697;BME280;4385;48.848;8.924;2022-11-18T00:23:20;95579.44;;;18.93;100.00
8697;BME280;4385;48.848;8.924;2022-11-18T00:25:45;95576.97;;;18.92;100.00
8697;BME280;4385;48.848;8.924;2022-11-18T00:28:10;95580.44;;;18.91;100.00
8697;BME280;4385;48.848;8.924;2022-11-18T00:30:35;95582.25;;;18.89;100.00
8697;BME280;4385;48.848;8.924;2022-11-18T00:33:01;95576.47;;;18.85;100.00
8697;BME280;4385;48.848;8.924;2022-11-18T00:35:26;95586.84;;;18.82;100.00
8697;BME280;4385;48.848;8.924;2022-11-18T00:37:51;95596.25;;;18.81;100.00
8697;BME280;4385;48.848;8.924;2022-11-18T00:40:16;95585.31;;;18.79;100.00
8697;BME280;4385;48.848;8.924;2022-11-18T00:42:42;95593.13;;;18.76;100.00
8697;BME280;4385;48.848;8.924;2022-11-18T00:45:20;95594.91;;;18.74;100.00
8697;BME280;4385;48.848;8.924;2022-11-18T00:47:46;95597.56;;;18.73;100.00
8697;BME280;4385;48.848;8.924;2022-11-18T00:50:11;95593.44;;;18.70;100.00
8697;BME280;4385;48.848;8.924;2022-11-18T00:52:36;95598.56;;;18.70;100.00
8697;BME280;4385;48.848;8.924;2022-11-18T00:55:02;95592.63;;;18.69;100.00
8697;BME280;4385;48.848;8.924;2022-11-18T00:57:28;95590.66;;;18.75;100.00
8697;BME280;4385;48.848;8.924;2022-11-18T00:59:53;95598.22;;;18.76;100.00
8697;BME280;4385;48.848;8.924;2022-11-18T01:02:18;95597.22;;;18.79;100.00
8697;BME280;4385;48.848;8.924;2022-11-18T01:04:44;95597.22;;;18.79;100.00
8697;BME280;4385;48.848;8.924;2022-11-18T01:07:09;95596.97;;;18.84;100.00
8697;BME280;4385;48.848;8.924;2022-11-18T01:09:34;95599.53;;;18.84;100.00
8697;BME280;4385;48.848;8.924;2022-11-18T01:11:59;95597.72;;;18.86;100.00
8697;BME280;4385;48.848;8.924;2022-11-18T01:14:43;95602.00;;;18.85;100.00
8697;BME280;4385;48.848;8.924;2022-11-18T01:17:09;95602.84;;;18.86;100.00
8697;BME280;4385;48.848;8.924;2022-11-18T01:19:34;95602.09;;;18.84;100.00
8697;BME280;4385;48.848;8.924;2022-11-18T01:22:00;95605.56;;;18.82;100.00
8697;BME280;4385;48.848;8.924;2022-11-18T01:24:31;95603.91;;;18.81;100.00
8697;BME280;4385;48.848;8.924;2022-11-18T01:26:57;95603.91;;;18.81;100.00
8697;BME280;4385;48.848;8.924;2022-11-18T01:29:22;95608.25;;;18.79;100.00
8697;BME280;4385;48.848;8.924;2022-11-18T01:31:48;95610.06;;;18.77;100.00
8697;BME280;4385;48.848;8.924;2022-11-18T01:34:13;95610.22;;;18.74;100.00
8697;BME280;4385;48.848;8.924;2022-11-18T01:36:38;95609.50;;;18.72;100.00
8697;BME280;4385;48.848;8.924;2022-11-18T01:39:04;95611.31;;;18.70;100.00
8697;BME280;4385;48.848;8.924;2022-11-18T01:41:29;95619.13;;;18.67;100.00
8697;BME280;4385;48.848;8.924;2022-11-18T01:44:00;95622.59;;;18.66;100.00
8697;BME280;4385;48.848;8.924;2022-11-18T01:46:28;95615.97;;;18.62;100.00
8697;BME280;4385;48.848;8.924;2022-11-18T01:49:05;95635.59;;;18.61;100.00
8697;BME280;4385;48.848;8.924;2022-11-18T01:51:34;95630.31;;;18.64;100.00
8697;BME280;4385;48.848;8.924;2022-11-18T01:54:34;95637.91;;;18.66;100.00
8697;BME280;4385;48.848;8.924;2022-11-18T01:57:05;95633.34;;;18.71;100.00
8697;BME280;4385;48.848;8.924;2022-11-18T01:59:35;95637.50;;;18.74;100.00
8697;BME280;4385;48.848;8.924;2022-11-18T02:02:05;95643.41;;;18.74;100.00
8697;BME280;4385;48.848;8.924;2022-11-18T02:04:33;95645.06;;;18.75;100.00
8697;BME280;4385;48.848;8.924;2022-11-18T02:06:58;95646.69;;;18.76;100.00
8697;BME280;4385;48.848;8.924;2022-11-18T02:09:23;95651.72;;;18.78;100.00
8697;BME280;4385;48.848;8.924;2022-11-18T02:11:49;95658.53;;;18.77;100.00
8697;BME280;4385;48.848;8.924;2022-11-18T02:14:17;95659.28;;;18.79;100.00
8697;BME280;4385;48.848;8.924;2022-11-18T02:25:12;95663.81;;;18.74;100.00
8697;BME280;4385;48.848;8.924;2022-11-18T02:30:35;95680.19;;;18.70;100.00
8697;BME280;4385;48.848;8.924;2022-11-18T02:33:09;95677.72;;;18.68;100.00
8697;BME280;4385;48.848;8.924;2022-11-18T02:35:41;95678.56;;;18.69;100.00
8697;BME280;4385;48.848;8.924;2022-11-18T02:38:23;95681.91;;;18.69;100.00
8697;BME280;4385;48.848;8.924;2022-11-18T02:40:54;95683.66;;;18.69;100.00
8697;BME280;4385;48.848;8.924;2022-11-18T02:43:44;95682.25;;;18.79;100.00
8697;BME280;4385;48.848;8.924;2022-11-18T02:46:15;95687.00;;;18.69;100.00
8697;BME280;4385;48.848;8.924;2022-11-18T02:48:46;95690.56;;;18.67;100.00
8697;BME280;4385;48.848;8.924;2022-11-18T02:51:16;95692.50;;;18.62;100.00
8697;BME280;4385;48.848;8.924;2022-11-18T02:53:51;95707.81;;;18.62;100.00
8697;BME280;4385;48.848;8.924;2022-11-18T02:56:19;95703.53;;;18.62;100.00
8697;BME280;4385;48.848;8.924;2022-11-18T02:58:45;95715.31;;;18.65;100.00
8697;BME280;4385;48.848;8.924;2022-11-18T03:01:20;95708.09;;;18.73;100.00
8697;BME280;4385;48.848;8.924;2022-11-18T03:03:47;95716.75;;;18.71;100.00
8697;BME280;4385;48.848;8.924;2022-11-18T03:06:26;95722.66;;;18.71;100.00
8697;BME280;4385;48.848;8.924;2022-11-18T03:09:07;95725.19;;;18.71;100.00
8697;BME280;4385;48.848;8.924;2022-11-18T03:14:50;95723.47;;;18.72;100.00
8697;BME280;4385;48.848;8.924;2022-11-18T03:17:59;95720.84;;;18.73;100.00
8697;BME280;4385;48.848;8.924;2022-11-18T03:20:33;95722.47;;;18.74;100.00
8697;BME280;4385;48.848;8.924;2022-11-18T03:23:15;95722.56;;;18.73;100.00
8697;BME280;4385;48.848;8.924;2022-11-18T03:26:01;95723.31;;;18.75;100.00
8697;BME280;4385;48.848;8.924;2022-11-18T03:28:49;95726.72;;;18.75;100.00
8697;BME280;4385;48.848;8.924;2022-11-18T03:31:23;95730.97;;;18.75;100.00
8697;BME280;4385;48.848;8.924;2022-11-18T03:33:59;95733.59;;;18.73;100.00
8697;BME280;4385;48.848;8.924;2022-11-18T03:36:29;95739.63;;;18.72;100.00
8697;BME280;4385;48.848;8.924;2022-11-18T03:38:59;95740.44;;;18.73;100.00
8697;BME280;4385;48.848;8.924;2022-11-18T03:41:28;95746.53;;;18.70;100.00
8697;BME280;4385;48.848;8.924;2022-11-18T03:44:00;95751.63;;;18.70;100.00
8697;BME280;4385;48.848;8.924;2022-11-18T03:46:40;95755.97;;;18.68;100.00
8697;BME280;4385;48.848;8.924;2022-11-18T03:49:11;95757.94;;;18.63;100.00
8697;BME280;4385;48.848;8.924;2022-11-18T03:51:46;95763.84;;;18.63;100.00
8697;BME280;4385;48.848;8.924;2022-11-18T03:54:18;95770.69;;;18.63;100.00
8697;BME280;4385;48.848;8.924;2022-11-18T03:56:52;95773.31;;;18.61;100.00
8697;BME280;4385;48.848;8.924;2022-11-18T03:59:31;95766.47;;;18.62;100.00
8697;BME280;4385;48.848;8.924;2022-11-18T04:04:28;95775.13;;;18.59;100.00
8697;BME280;4385;48.848;8.924;2022-11-18T04:07:01;95782.00;;;18.57;100.00
8697;BME280;4385;48.848;8.924;2022-11-18T04:09:36;95780.38;;;18.56;100.00
8697;BME280;4385;48.848;8.924;2022-11-18T04:12:12;95782.16;;;18.54;100.00
8697;BME280;4385;48.848;8.924;2022-11-18T04:14:41;95781.44;;;18.52;100.00
8697;BME280;4385;48.848;8.924;2022-11-18T04:17:13;95785.72;;;18.51;100.00
8697;BME280;4385;48.848;8.924;2022-11-18T04:19:40;95783.16;;;18.51;100.00
8697;BME280;4385;48.848;8.924;2022-11-18T04:22:05;95788.25;;;18.51;100.00
8697;BME280;4385;48.848;8.924;2022-11-18T04:24:31;95791.72;;;18.50;100.00
8697;BME280;4385;48.848;8.924;2022-11-18T04:26:56;95793.50;;;18.48;100.00
8697;BME280;4385;48.848;8.924;2022-11-18T04:29:22;95790.19;;;18.46;100.00
8697;BME280;4385;48.848;8.924;2022-11-18T04:31:47;95782.63;;;18.44;100.00
8697;BME280;4385;48.848;8.924;2022-11-18T04:34:12;95793.81;;;18.42;100.00
8697;BME280;4385;48.848;8.924;2022-11-18T04:36:38;95788.78;;;18.40;100.00
8697;BME280;4385;48.848;8.924;2022-11-18T04:39:03;95793.97;;;18.39;100.00
8697;BME280;4385;48.848;8.924;2022-11-18T04:41:29;95796.50;;;18.39;100.00
8697;BME280;4385;48.848;8.924;2022-11-18T04:44:14;95797.28;;;18.41;100.00
8697;BME280;4385;48.848;8.924;2022-11-18T04:46:41;95800.56;;;18.43;100.00
8697;BME280;4385;48.848;8.924;2022-11-18T04:49:08;95797.84;;;18.46;100.00
8697;BME280;4385;48.848;8.924;2022-11-18T04:51:34;95797.69;;;18.49;100.00
8697;BME280;4385;48.848;8.924;2022-11-18T04:53:59;95796.75;;;18.52;100.00
8697;BME280;4385;48.848;8.924;2022-11-18T04:56:24;95804.31;;;18.53;100.00
8697;BME280;4385;48.848;8.924;2022-11-18T04:58:49;95804.25;;;18.55;100.00
8697;BME280;4385;48.848;8.924;2022-11-18T05:01:15;95807.59;;;18.55;100.00
8697;BME280;4385;48.848;8.924;2022-11-18T05:03:40;95812.63;;;18.57;100.00
8697;BME280;4385;48.848;8.924;2022-11-18T05:06:05;95817.66;;;18.59;100.00
8697;BME280;4385;48.848;8.924;2022-11-18T05:08:30;95814.22;;;18.60;100.00
8697;BME280;4385;48.848;8.924;2022-11-18T05:10:56;95812.47;;;18.60;100.00
8697;BME280;4385;48.848;8.924;2022-11-18T05:13:41;95815.84;;;18.61;100.00
8697;BME280;4385;48.848;8.924;2022-11-18T05:16:06;95815.84;;;18.61;100.00
8697;BME280;4385;48.848;8.924;2022-11-18T05:18:31;95818.41;;;18.61;100.00
8697;BME280;4385;48.848;8.924;2022-11-18T05:20:57;95813.31;;;18.61;100.00
8697;BME280;4385;48.848;8.924;2022-11-18T05:23:22;95814.22;;;18.60;100.00
8697;BME280;4385;48.848;8.924;2022-11-18T05:25:47;95819.41;;;18.58;100.00
8697;BME280;4385;48.848;8.924;2022-11-18T05:28:13;95818.56;;;18.57;100.00
8697;BME280;4385;48.848;8.924;2022-11-18T05:30:38;95811.81;;;18.56;100.00
8697;BME280;4385;48.848;8.924;2022-11-18T05:33:03;95820.34;;;18.55;100.00
8697;BME280;4385;48.848;8.924;2022-11-18T05:35:28;95820.34;;;18.55;100.00
8697;BME280;4385;48.848;8.924;2022-11-18T05:37:54;95821.19;;;18.56;100.00
8697;BME280;4385;48.848;8.924;2022-11-18T05:40:19;95823.81;;;18.54;100.00
8697;BME280;4385;48.848;8.924;2022-11-18T05:42:44;95824.66;;;18.55;100.00
8697;BME280;4385;48.848;8.924;2022-11-18T05:45:28;95827.28;;;18.53;100.00
8697;BME280;4385;48.848;8.924;2022-11-18T05:47:53;95832.38;;;18.53;100.00
8697;BME280;4385;48.848;8.924;2022-11-18T05:50:24;95834.00;;;18.54;100.00
8697;BME280;4385;48.848;8.924;2022-11-18T05:52:49;95837.47;;;18.53;100.00
8697;BME280;4385;48.848;8.924;2022-11-18T05:55:16;95843.44;;;18.52;100.00
8697;BME280;4385;48.848;8.924;2022-11-18T05:57:42;95842.66;;;18.52;100.00
8697;BME280;4385;48.848;8.924;2022-11-18T06:00:07;95846.84;;;18.53;100.00
8697;BME280;4385;48.848;8.924;2022-11-18T06:02:33;95846.84;;;18.53;100.00
8697;BME280;4385;48.848;8.924;2022-11-18T06:05:00;95841.75;;;18.53;100.00
8697;BME280;4385;48.848;8.924;2022-11-18T06:07:32;95855.31;;;18.53;100.00
8697;BME280;4385;48.848;8.924;2022-11-18T06:09:59;95856.22;;;18.52;100.00
8697;BME280;4385;48.848;8.924;2022-11-18T06:12:28;95853.66;;;18.52;100.00
8697;BME280;4385;48.848;8.924;2022-11-18T06:15:21;95852.84;;;18.52;100.00
8697;BME280;4385;48.848;8.924;2022-11-18T06:20:20;95861.53;;;18.48;100.00
8697;BME280;4385;48.848;8.924;2022-11-18T06:22:47;95863.28;;;18.47;100.00
8697;BME280;4385;48.848;8.924;2022-11-18T06:25:13;95865.06;;;18.45;100.00
8697;BME280;4385;48.848;8.924;2022-11-18T06:27:39;95862.59;;;18.43;100.00
8697;BME280;4385;48.848;8.924;2022-11-18T06:30:04;95867.75;;;18.42;100.00
8697;BME280;4385;48.848;8.924;2022-11-18T06:32:30;95870.47;;;18.39;100.00
8697;BME280;4385;48.848;8.924;2022-11-18T06:34:55;95873.91;;;18.38;100.00
8697;BME280;4385;48.848;8.924;2022-11-18T06:37:21;95872.31;;;18.35;100.00
8697;BME280;4385;48.848;8.924;2022-11-18T06:39:46;95868.13;;;18.34;100.00
8697;BME280;4385;48.848;8.924;2022-11-18T06:42:11;95880.94;;;18.32;100.00
8697;BME280;4385;48.848;8.924;2022-11-18T06:44:57;95883.66;;;18.29;100.00
8697;BME280;4385;48.848;8.924;2022-11-18T06:47:22;95886.34;;;18.26;100.00
8697;BME280;4385;48.848;8.924;2022-11-18T06:49:47;95891.44;;;18.26;100.00
8697;BME280;4385;48.848;8.924;2022-11-18T06:52:13;95891.44;;;18.26;100.00
8697;BME280;4385;48.848;8.924;2022-11-18T06:54:38;95896.69;;;18.23;100.00
8697;BME280;4385;48.848;8.924;2022-11-18T06:57:03;95906.81;;;18.25;100.00
8697;BME280;4385;48.848;8.924;2022-11-18T06:59:28;95907.63;;;18.25;100.00
8697;BME280;4385;48.848;8.924;2022-11-18T07:01:54;95912.88;;;18.22;100.00
8697;BME280;4385;48.848;8.924;2022-11-18T07:04:19;95916.31;;;18.21;100.00
8697;BME280;4385;48.848;8.924;2022-11-18T07:06:44;95924.88;;;18.20;100.00
8697;BME280;4385;48.848;8.924;2022-11-18T07:09:10;95920.66;;;18.19;100.00
8697;BME280;4385;48.848;8.924;2022-11-18T07:11:35;95923.22;;;18.19;100.00
8697;BME280;4385;48.848;8.924;2022-11-18T07:14:02;95925.91;;;18.16;100.00
8697;BME280;4385;48.848;8.924;2022-11-18T07:16:28;95927.69;;;18.14;100.00
8697;BME280;4385;48.848;8.924;2022-11-18T07:18:54;95931.88;;;18.15;100.00
8697;BME280;4385;48.848;8.924;2022-11-18T07:21:22;95934.50;;;18.13;100.00
8697;BME280;4385;48.848;8.924;2022-11-18T07:23:48;95939.66;;;18.12;100.00
8697;BME280;4385;48.848;8.924;2022-11-18T07:26:14;95947.44;;;18.08;100.00
8697;BME280;4385;48.848;8.924;2022-11-18T07:28:40;95948.25;;;18.09;100.00
8697;BME280;4385;48.848;8.924;2022-11-18T07:31:09;95949.97;;;18.08;100.00
8697;BME280;4385;48.848;8.924;2022-11-18T07:33:35;95950.94;;;18.06;100.00
8697;BME280;4385;48.848;8.924;2022-11-18T07:38:27;95956.19;;;18.03;100.00
8697;BME280;4385;48.848;8.924;2022-11-18T07:40:53;95968.09;;;18.02;100.00
8697;BME280;4385;48.848;8.924;2022-11-18T07:43:18;95963.91;;;18.01;100.00
8697;BME280;4385;48.848;8.924;2022-11-18T07:45:43;95970.66;;;18.02;100.00
8697;BME280;4385;48.848;8.924;2022-11-18T07:48:11;95981.75;;;18.01;100.00
8697;BME280;4385;48.848;8.924;2022-11-18T07:50:39;95983.38;;;18.02;100.00
8697;BME280;4385;48.848;8.924;2022-11-18T07:53:05;95986.78;;;18.03;100.00
8697;BME280;4385;48.848;8.924;2022-11-18T07:55:30;95988.41;;;18.04;100.00
8697;BME280;4385;48.848;8.924;2022-11-18T07:57:55;95994.34;;;18.04;100.00
8697;BME280;4385;48.848;8.924;2022-11-18T08:00:21;95999.31;;;18.07;100.00
8697;BME280;4385;48.848;8.924;2022-11-18T08:02:49;96002.22;;;18.57;100.00
8697;BME280;4385;48.848;8.924;2022-11-18T08:05:18;96003.97;;;18.38;100.00
8697;BME280;4385;48.848;8.924;2022-11-18T08:07:43;96008.59;;;18.29;100.00
8697;BME280;4385;48.848;8.924;2022-11-18T08:10:09;96013.81;;;18.26;100.00
8697;BME280;4385;48.848;8.924;2022-11-18T08:12:34;96012.31;;;18.22;100.00
8697;BME280;4385;48.848;8.924;2022-11-18T08:14:59;96013.13;;;18.23;100.00
8697;BME280;4385;48.848;8.924;2022-11-18T08:17:25;96019.28;;;18.38;100.00
8697;BME280;4385;48.848;8.924;2022-11-18T08:19:53;96027.34;;;18.28;100.00
8697;BME280;4385;48.848;8.924;2022-11-18T08:22:18;96020.56;;;18.27;100.00
8697;BME280;4385;48.848;8.924;2022-11-18T08:24:47;96018.06;;;18.26;100.00
8697;BME280;4385;48.848;8.924;2022-11-18T08:27:13;96020.69;;;18.24;100.00
8697;BME280;4385;48.848;8.924;2022-11-18T08:29:50;96025.88;;;18.23;100.00
8697;BME280;4385;48.848;8.924;2022-11-18T08:32:15;96027.75;;;18.19;100.00
8697;BME280;4385;48.848;8.924;2022-11-18T08:34:47;96030.28;;;18.19;100.00
8697;BME280;4385;48.848;8.924;2022-11-18T08:37:20;96032.06;;;18.17;100.00
8697;BME280;4385;48.848;8.924;2022-11-18T08:39:48;96035.53;;;18.16;100.00
8697;BME280;4385;48.848;8.924;2022-11-18T08:42:13;96031.31;;;18.15;100.00
8697;BME280;4385;48.848;8.924;2022-11-18T08:44:44;96038.81;;;18.18;100.00
8697;BME280;4385;48.848;8.924;2022-11-18T08:47:09;96043.03;;;18.19;100.00
8697;BME280;4385;48.848;8.924;2022-11-18T08:49:35;96046.31;;;18.21;100.00
8697;BME280;4385;48.848;8.924;2022-11-18T08:52:00;96041.22;;;18.21;100.00
8697;BME280;4385;48.848;8.924;2022-11-18T08:54:25;96048.88;;;18.21;100.00
8697;BME280;4385;48.848;8.924;2022-11-18T08:56:50;96048.81;;;18.23;100.00
8697;BME280;4385;48.848;8.924;2022-11-18T08:59:16;96048.75;;;18.24;100.00
8697;BME280;4385;48.848;8.924;2022-11-18T09:01:41;96042.78;;;18.25;100.00
8697;BME280;4385;48.848;8.924;2022-11-18T09:04:07;96046.13;;;18.45;100.00
8697;BME280;4385;48.848;8.924;2022-11-18T09:06:33;96046.56;;;18.36;100.00
8697;BME280;4385;48.848;8.924;2022-11-18T09:08:59;96058.63;;;18.51;100.00
8697;BME280;4385;48.848;8.924;2022-11-18T09:11:26;96058.47;;;18.54;100.00
8697;BME280;4385;48.848;8.924;2022-11-18T09:13:57;96052.88;;;18.46;100.00
8697;BME280;4385;48.848;8.924;2022-11-18T09:16:27;96050.13;;;18.51;100.00
8697;BME280;4385;48.848;8.924;2022-11-18T09:18:54;96058.88;;;18.45;100.00
8697;BME280;4385;48.848;8.924;2022-11-18T09:21:19;96064.91;;;18.44;100.00
8697;BME280;4385;48.848;8.924;2022-11-18T09:23:44;96066.69;;;18.42;100.00
8697;BME280;4385;48.848;8.924;2022-11-18T09:26:12;96070.88;;;18.43;100.00
8697;BME280;4385;48.848;8.924;2022-11-18T09:28:38;96069.22;;;18.42;100.00
8697;BME280;4385;48.848;8.924;2022-11-18T09:31:08;96075.16;;;18.42;100.00
8697;BME280;4385;48.848;8.924;2022-11-18T09:33:35;96077.66;;;18.44;100.00
8697;BME280;4385;48.848;8.924;2022-11-18T09:36:02;96073.34;;;18.44;100.00
8697;BME280;4385;48.848;8.924;2022-11-18T09:38:28;96083.41;;;18.48;100.00
8697;BME280;4385;48.848;8.924;2022-11-18T09:44:04;96086.31;;;18.59;100.00
8697;BME280;4385;48.848;8.924;2022-11-18T09:49:09;96088.38;;;18.70;100.00
8697;BME280;4385;48.848;8.924;2022-11-18T09:51:44;96089.09;;;18.74;100.00
8697;BME280;4385;48.848;8.924;2022-11-18T09:54:24;96088.88;;;18.78;100.00
8697;BME280;4385;48.848;8.924;2022-11-18T09:56:51;96093.84;;;18.81;100.00
8697;BME280;4385;48.848;8.924;2022-11-18T09:59:19;96096.25;;;18.85;100.00
8697;BME280;4385;48.848;8.924;2022-11-18T10:01:45;96101.22;;;18.88;100.00
8697;BME280;4385;48.848;8.924;2022-11-18T10:04:14;96095.13;;;18.90;100.00
8697;BME280;4385;48.848;8.924;2022-11-18T10:06:40;96098.94;;;19.38;100.00
8697;BME280;4385;48.848;8.924;2022-11-18T10:09:25;96108.16;;;19.40;100.00
8697;BME280;4385;48.848;8.924;2022-11-18T10:14:56;96108.84;;;19.44;100.00
8697;BME280;4385;48.848;8.924;2022-11-18T10:22:57;96115.75;;;19.42;100.00
8697;BME280;4385;48.848;8.924;2022-11-18T10:25:27;96111.50;;;19.42;100.00
8697;BME280;4385;48.848;8.924;2022-11-18T10:27:54;96112.28;;;19.43;100.00
8697;BME280;4385;48.848;8.924;2022-11-18T10:30:22;96128.53;;;19.42;100.00
8697;BME280;4385;48.848;8.924;2022-11-18T10:32:58;96120.03;;;19.41;100.00
8697;BME280;4385;48.848;8.924;2022-11-18T10:35:33;96122.66;;;19.40;100.00
8697;BME280;4385;48.848;8.924;2022-11-18T10:38:01;96120.19;;;19.38;100.00
8697;BME280;4385;48.848;8.924;2022-11-18T10:40:31;96126.13;;;19.39;100.00
8697;BME280;4385;48.848;8.924;2022-11-18T10:42:58;96127.75;;;19.40;100.00
8697;BME280;4385;48.848;8.924;2022-11-18T10:45:25;96132.72;;;19.43;100.00
8697;BME280;4385;48.848;8.924;2022-11-18T10:50:36;96142.94;;;19.43;100.00
8697;BME280;4385;48.848;8.924;2022-11-18T10:53:04;96142.00;;;19.46;100.00
8697;BME280;4385;48.848;8.924;2022-11-18T10:55:30;96144.53;;;19.46;100.00
8697;BME280;4385;48.848;8.924;2022-11-18T10:58:02;96145.22;;;19.49;100.00
8697;BME280;4385;48.848;8.924;2022-11-18T11:00:36;96144.31;;;19.50;100.00
8697;BME280;4385;48.848;8.924;2022-11-18T11:03:21;96152.72;;;19.52;100.00
8697;BME280;4385;48.848;8.924;2022-11-18T11:05:46;96143.34;;;19.53;100.00
8697;BME280;4385;48.848;8.924;2022-11-18T11:08:20;96155.22;;;19.54;100.00
8697;BME280;4385;48.848;8.924;2022-11-18T11:10:58;96145.81;;;19.54;100.00
8697;BME280;4385;48.848;8.924;2022-11-18T11:13:28;96149.13;;;19.56;100.00
8697;BME280;4385;48.848;8.924;2022-11-18T11:15:59;96143.28;;;19.54;100.00
8697;BME280;4385;48.848;8.924;2022-11-18T11:18:31;96145.75;;;19.56;100.00
8697;BME280;4385;48.848;8.924;2022-11-18T11:21:18;96140.56;;;19.58;100.00
8697;BME280;4385;48.848;8.924;2022-11-18T11:23:44;96144.75;;;19.59;100.00
8697;BME280;4385;48.848;8.924;2022-11-18T11:31:37;96154.25;;;19.56;100.00
8697;BME280;4385;48.848;8.924;2022-11-18T11:37:03;96155.13;;;19.55;100.00
8697;BME280;4385;48.848;8.924;2022-11-18T11:39:55;96157.69;;;19.55;100.00
8697;BME280;4385;48.848;8.924;2022-11-18T11:42:46;96157.63;;;19.57;100.00
8697;BME280;4385;48.848;8.924;2022-11-18T11:48:26;96155.47;;;20.02;100.00
8697;BME280;4385;48.848;8.924;2022-11-18T11:50:58;96160.88;;;19.78;100.00
8697;BME280;4385;48.848;8.924;2022-11-18T11:56:33;96162.81;;;19.73;100.00
8697;BME280;4385;48.848;8.924;2022-11-18T12:02:30;96169.00;;;19.69;100.00
8697;BME280;4385;48.848;8.924;2022-11-18T12:05:16;96164.75;;;19.68;100.00
8697;BME280;4385;48.848;8.924;2022-11-18T12:07:57;96169.81;;;19.69;100.00
8697;BME280;4385;48.848;8.924;2022-11-18T12:13:09;96173.19;;;19.70;100.00
8697;BME280;4385;48.848;8.924;2022-11-18T12:15:51;96174.84;;;19.71;100.00
8697;BME280;4385;48.848;8.924;2022-11-18T12:18:34;96179.00;;;19.74;100.00
8697;BME280;4385;48.848;8.924;2022-11-18T12:21:02;96180.63;;;19.75;100.00
8697;BME280;4385;48.848;8.924;2022-11-18T12:23:29;96185.53;;;19.79;100.00
8697;BME280;4385;48.848;8.924;2022-11-18T12:30:50;96173.66;;;19.78;100.00
8697;BME280;4385;48.848;8.924;2022-11-18T12:33:41;96170.19;;;19.79;100.00
8697;BME280;4385;48.848;8.924;2022-11-18T12:36:08;96170.28;;;19.78;100.00
8697;BME280;4385;48.848;8.924;2022-11-18T12:38:33;96168.53;;;19.78;100.00
8697;BME280;4385;48.848;8.924;2022-11-18T12:40:59;96181.25;;;19.80;100.00
8697;BME280;4385;48.848;8.924;2022-11-18T12:51:56;96183.88;;;19.78;100.00
8697;BME280;4385;48.848;8.924;2022-11-18T12:54:42;96179.50;;;19.80;100.00
8697;BME280;4385;48.848;8.924;2022-11-18T12:57:29;96184.47;;;19.84;100.00
8697;BME280;4385;48.848;8.924;2022-11-18T12:59:56;96171.84;;;19.80;100.00
8697;BME280;4385;48.848;8.924;2022-11-18T13:02:27;96186.38;;;19.80;100.00
8697;BME280;4385;48.848;8.924;2022-11-18T13:05:29;96186.38;;;19.80;100.00
8697;BME280;4385;48.848;8.924;2022-11-18T13:08:01;96181.19;;;19.81;100.00
8697;BME280;4385;48.848;8.924;2022-11-18T13:13:28;96187.16;;;19.80;100.00
8697;BME280;4385;48.848;8.924;2022-11-18T13:15:58;96199.94;;;19.80;100.00
8697;BME280;4385;48.848;8.924;2022-11-18T13:18:52;96202.50;;;19.80;100.00
8697;BME280;4385;48.848;8.924;2022-11-18T13:21:23;96202.44;;;19.82;100.00
8697;BME280;4385;48.848;8.924;2022-11-18T13:24:13;96209.44;;;19.78;100.00
8697;BME280;4385;48.848;8.924;2022-11-18T13:26:42;96209.59;;;19.75;100.00
8697;BME280;4385;48.848;8.924;2022-11-18T13:29:13;96202.81;;;19.74;100.00
8697;BME280;4385;48.848;8.924;2022-11-18T13:34:45;96196.19;;;19.70;100.00
8697;BME280;4385;48.848;8.924;2022-11-18T13:37:20;96197.03;;;19.71;100.00
8697;BME280;4385;48.848;8.924;2022-11-18T13:39:46;96197.09;;;19.69;100.00
8697;BME280;4385;48.848;8.924;2022-11-18T13:42:16;96197.84;;;19.71;100.00
8697;BME280;4385;48.848;8.924;2022-11-18T13:44:56;96188.53;;;19.70;100.00
8697;BME280;4385;48.848;8.924;2022-11-18T13:47:45;96198.75;;;19.70;100.00
8697;BME280;4385;48.848;8.924;2022-11-18T13:50:16;96196.34;;;19.67;100.00
8697;BME280;4385;48.848;8.924;2022-11-18T13:52:53;96203.25;;;19.65;100.00
8697;BME280;4385;48.848;8.924;2022-11-18T13:55:26;96209.19;;;19.65;100.00
8697;BME280;4385;48.848;8.924;2022-11-18T13:58:03;96223.59;;;19.66;100.00
8697;BME280;4385;48.848;8.924;2022-11-18T14:00:32;96218.56;;;19.65;100.00
8697;BME280;4385;48.848;8.924;2022-11-18T14:03:02;96214.53;;;19.61;100.00
8697;BME280;4385;48.848;8.924;2022-11-18T14:05:28;96219.69;;;19.59;100.00
8697;BME280;4385;48.848;8.924;2022-11-18T14:08:05;96222.31;;;19.58;100.00
8697;BME280;4385;48.848;8.924;2022-11-18T14:10:38;96224.88;;;19.58;100.00
8697;BME280;4385;48.848;8.924;2022-11-18T14:13:34;96229.09;;;19.59;100.00
8697;BME280;4385;48.848;8.924;2022-11-18T14:16:00;96231.50;;;19.62;100.00
8697;BME280;4385;48.848;8.924;2022-11-18T14:18:33;96228.13;;;19.61;100.00
8697;BME280;4385;48.848;8.924;2022-11-18T14:20:59;96234.81;;;19.64;100.00
8697;BME280;4385;48.848;8.924;2022-11-18T14:23:35;96233.97;;;19.63;100.00
8697;BME280;4385;48.848;8.924;2022-11-18T14:26:03;96232.25;;;19.64;100.00
8697;BME280;4385;48.848;8.924;2022-11-18T14:28:31;96235.56;;;19.66;100.00
8697;BME280;4385;48.848;8.924;2022-11-18T14:36:48;96238.00;;;19.69;100.00
8697;BME280;4385;48.848;8.924;2022-11-18T14:39:29;96238.72;;;19.71;100.00
8697;BME280;4385;48.848;8.924;2022-11-18T14:41:55;96229.13;;;19.76;100.00
8697;BME280;4385;48.848;8.924;2022-11-18T14:44:23;96230.75;;;19.77;100.00
8697;BME280;4385;48.848;8.924;2022-11-18T14:46:50;96235.00;;;19.78;100.00
8697;BME280;4385;48.848;8.924;2022-11-18T14:49:21;96248.50;;;19.80;100.00